sensor_id;sensor_type;location;lat;lon;timestamp;P1;durP1;ratioP1;P2;durP2;ratioP2
37851;SDS011;23691;52.486;4.650;2022-08-01T00:02:13;9.88;;;2.70;;
37851;SDS011;23691;52.486;4.650;2022-08-01T00:04:38;8.00;;;2.58;;
37851;SDS011;23691;52.486;4.650;2022-08-01T00:07:04;8.65;;;2.45;;
37851;SDS011;23691;52.486;4.650;2022-08-01T00:09:29;9.07;;;2.58;;
37851;SDS011;23691;52.486;4.650;2022-08-01T00:11:55;9.48;;;2.90;;
37851;SDS011;23691;52.486;4.650;2022-08-01T00:14:20;7.65;;;2.72;;
37851;SDS011;23691;52.486;4.650;2022-08-01T00:16:45;10.32;;;3.00;;
37851;SDS011;23691;52.486;4.650;2022-08-01T00:19:11;8.88;;;3.13;;
37851;SDS011;23691;52.486;4.650;2022-08-01T00:21:36;11.23;;;2.78;;
37851;SDS011;23691;52.486;4.650;2022-08-01T00:24:01;12.13;;;3.10;;
37851;SDS011;23691;52.486;4.650;2022-08-01T00:26:27;9.32;;;2.88;;
37851;SDS011;23691;52.486;4.650;2022-08-01T00:28:52;8.75;;;3.20;;
37851;SDS011;23691;52.486;4.650;2022-08-01T00:31:18;9.90;;;3.30;;
37851;SDS011;23691;52.486;4.650;2022-08-01T00:33:43;9.13;;;3.33;;
37851;SDS011;23691;52.486;4.650;2022-08-01T00:36:08;11.45;;;3.50;;
37851;SDS011;23691;52.486;4.650;2022-08-01T00:38:34;9.73;;;3.92;;
37851;SDS011;23691;52.486;4.650;2022-08-01T00:40:59;8.82;;;3.80;;
37851;SDS011;23691;52.486;4.650;2022-08-01T00:43:25;8.20;;;3.58;;
37851;SDS011;23691;52.486;4.650;2022-08-01T00:45:50;13.80;;;4.28;;
37851;SDS011;23691;52.486;4.650;2022-08-01T00:48:15;9.70;;;3.83;;
37851;SDS011;23691;52.486;4.650;2022-08-01T00:50:41;11.82;;;4.10;;
37851;SDS011;23691;52.486;4.650;2022-08-01T00:53:06;9.82;;;4.20;;
37851;SDS011;23691;52.486;4.650;2022-08-01T00:55:32;12.18;;;4.65;;
37851;SDS011;23691;52.486;4.650;2022-08-01T00:57:57;11.85;;;4.57;;
37851;SDS011;23691;52.486;4.650;2022-08-01T01:00:23;10.38;;;3.92;;
37851;SDS011;23691;52.486;4.650;2022-08-01T01:02:49;10.68;;;4.30;;
37851;SDS011;23691;52.486;4.650;2022-08-01T01:05:15;9.80;;;4.05;;
37851;SDS011;23691;52.486;4.650;2022-08-01T01:07:44;8.75;;;3.92;;
37851;SDS011;23691;52.486;4.650;2022-08-01T01:16:00;9.45;;;3.80;;
37851;SDS011;23691;52.486;4.650;2022-08-01T01:18:34;12.38;;;4.05;;
37851;SDS011;23691;52.486;4.650;2022-08-01T01:26:53;12.35;;;4.25;;
37851;SDS011;23691;52.486;4.650;2022-08-01T01:29:31;9.27;;;4.10;;
37851;SDS011;23691;52.486;4.650;2022-08-01T01:34:50;9.15;;;4.15;;
37851;SDS011;23691;52.486;4.650;2022-08-01T01:37:20;12.98;;;4.13;;
37851;SDS011;23691;52.486;4.650;2022-08-01T01:39:49;7.50;;;3.30;;
37851;SDS011;23691;52.486;4.650;2022-08-01T01:42:16;9.88;;;3.70;;
37851;SDS011;23691;52.486;4.650;2022-08-01T01:44:43;9.02;;;3.30;;
37851;SDS011;23691;52.486;4.650;2022-08-01T01:47:09;11.13;;;2.97;;
37851;SDS011;23691;52.486;4.650;2022-08-01T01:49:39;7.50;;;2.40;;
37851;SDS011;23691;52.486;4.650;2022-08-01T01:52:08;6.95;;;1.88;;
37851;SDS011;23691;52.486;4.650;2022-08-01T01:54:42;6.50;;;1.95;;
37851;SDS011;23691;52.486;4.650;2022-08-01T01:57:12;7.63;;;2.10;;
37851;SDS011;23691;52.486;4.650;2022-08-01T01:59:39;4.20;;;1.80;;
37851;SDS011;23691;52.486;4.650;2022-08-01T02:02:06;4.28;;;1.42;;
37851;SDS011;23691;52.486;4.650;2022-08-01T02:04:35;5.32;;;1.65;;
37851;SDS011;23691;52.486;4.650;2022-08-01T02:07:03;5.32;;;1.70;;
37851;SDS011;23691;52.486;4.650;2022-08-01T02:11:56;8.52;;;1.83;;
37851;SDS011;23691;52.486;4.650;2022-08-01T02:14:24;5.57;;;1.80;;
37851;SDS011;23691;52.486;4.650;2022-08-01T02:16:52;5.38;;;1.80;;
37851;SDS011;23691;52.486;4.650;2022-08-01T02:19:22;7.20;;;2.00;;
37851;SDS011;23691;52.486;4.650;2022-08-01T02:21:51;5.53;;;1.60;;
37851;SDS011;23691;52.486;4.650;2022-08-01T02:24:24;5.38;;;1.70;;
37851;SDS011;23691;52.486;4.650;2022-08-01T02:27:05;4.03;;;1.63;;
37851;SDS011;23691;52.486;4.650;2022-08-01T02:29:37;4.25;;;1.80;;
37851;SDS011;23691;52.486;4.650;2022-08-01T02:32:06;4.20;;;1.63;;
37851;SDS011;23691;52.486;4.650;2022-08-01T02:34:36;5.70;;;1.75;;
37851;SDS011;23691;52.486;4.650;2022-08-01T02:37:01;5.18;;;1.42;;
37851;SDS011;23691;52.486;4.650;2022-08-01T02:39:29;5.80;;;1.65;;
37851;SDS011;23691;52.486;4.650;2022-08-01T02:41:57;3.75;;;1.70;;
37851;SDS011;23691;52.486;4.650;2022-08-01T02:44:28;3.15;;;1.30;;
37851;SDS011;23691;52.486;4.650;2022-08-01T02:46:57;5.57;;;1.60;;
37851;SDS011;23691;52.486;4.650;2022-08-01T02:49:27;7.80;;;1.63;;
37851;SDS011;23691;52.486;4.650;2022-08-01T02:51:56;4.53;;;1.63;;
37851;SDS011;23691;52.486;4.650;2022-08-01T02:54:23;4.05;;;1.63;;
37851;SDS011;23691;52.486;4.650;2022-08-01T02:56:51;4.25;;;1.65;;
37851;SDS011;23691;52.486;4.650;2022-08-01T02:59:18;4.57;;;1.70;;
37851;SDS011;23691;52.486;4.650;2022-08-01T03:01:50;5.72;;;1.50;;
37851;SDS011;23691;52.486;4.650;2022-08-01T03:04:18;6.43;;;1.85;;
37851;SDS011;23691;52.486;4.650;2022-08-01T03:06:45;5.80;;;1.70;;
37851;SDS011;23691;52.486;4.650;2022-08-01T03:09:12;4.90;;;1.70;;
37851;SDS011;23691;52.486;4.650;2022-08-01T03:11:38;5.88;;;1.70;;
37851;SDS011;23691;52.486;4.650;2022-08-01T03:14:07;3.75;;;1.50;;
37851;SDS011;23691;52.486;4.650;2022-08-01T03:16:34;4.72;;;1.80;;
37851;SDS011;23691;52.486;4.650;2022-08-01T03:19:02;6.28;;;1.75;;
37851;SDS011;23691;52.486;4.650;2022-08-01T03:21:29;6.88;;;1.90;;
37851;SDS011;23691;52.486;4.650;2022-08-01T03:23:57;6.18;;;2.00;;
37851;SDS011;23691;52.486;4.650;2022-08-01T03:26:26;6.13;;;1.92;;
37851;SDS011;23691;52.486;4.650;2022-08-01T03:28:55;5.60;;;2.00;;
37851;SDS011;23691;52.486;4.650;2022-08-01T03:31:22;4.95;;;1.77;;
37851;SDS011;23691;52.486;4.650;2022-08-01T03:33:49;5.80;;;2.20;;
37851;SDS011;23691;52.486;4.650;2022-08-01T03:36:14;5.53;;;2.08;;
37851;SDS011;23691;52.486;4.650;2022-08-01T03:38:42;10.40;;;2.17;;
37851;SDS011;23691;52.486;4.650;2022-08-01T03:41:11;5.75;;;2.10;;
37851;SDS011;23691;52.486;4.650;2022-08-01T03:43:44;6.22;;;2.20;;
37851;SDS011;23691;52.486;4.650;2022-08-01T03:46:17;4.63;;;2.10;;
37851;SDS011;23691;52.486;4.650;2022-08-01T03:48:49;7.30;;;2.38;;
37851;SDS011;23691;52.486;4.650;2022-08-01T03:51:20;6.43;;;2.22;;
37851;SDS011;23691;52.486;4.650;2022-08-01T03:53:47;6.65;;;2.40;;
37851;SDS011;23691;52.486;4.650;2022-08-01T03:56:16;8.50;;;2.85;;
37851;SDS011;23691;52.486;4.650;2022-08-01T03:58:44;8.85;;;2.65;;
37851;SDS011;23691;52.486;4.650;2022-08-01T04:01:10;7.57;;;2.80;;
37851;SDS011;23691;52.486;4.650;2022-08-01T04:03:36;7.30;;;2.90;;
37851;SDS011;23691;52.486;4.650;2022-08-01T04:06:05;10.05;;;3.22;;
37851;SDS011;23691;52.486;4.650;2022-08-01T04:08:37;12.02;;;3.42;;
37851;SDS011;23691;52.486;4.650;2022-08-01T04:11:03;12.40;;;3.60;;
37851;SDS011;23691;52.486;4.650;2022-08-01T04:13:30;15.75;;;4.28;;
37851;SDS011;23691;52.486;4.650;2022-08-01T04:15:55;13.82;;;3.90;;
37851;SDS011;23691;52.486;4.650;2022-08-01T04:18:21;13.52;;;4.20;;
37851;SDS011;23691;52.486;4.650;2022-08-01T04:20:46;17.85;;;4.70;;
37851;SDS011;23691;52.486;4.650;2022-08-01T04:23:12;16.52;;;4.65;;
37851;SDS011;23691;52.486;4.650;2022-08-01T04:25:40;16.55;;;4.53;;
37851;SDS011;23691;52.486;4.650;2022-08-01T04:28:07;19.10;;;4.13;;
37851;SDS011;23691;52.486;4.650;2022-08-01T04:30:41;18.42;;;4.82;;
37851;SDS011;23691;52.486;4.650;2022-08-01T04:33:10;19.48;;;4.93;;
37851;SDS011;23691;52.486;4.650;2022-08-01T04:35:38;20.00;;;4.72;;
37851;SDS011;23691;52.486;4.650;2022-08-01T04:40:34;27.73;;;5.77;;
37851;SDS011;23691;52.486;4.650;2022-08-01T04:43:03;29.00;;;5.10;;
37851;SDS011;23691;52.486;4.650;2022-08-01T04:45:29;21.83;;;4.70;;
37851;SDS011;23691;52.486;4.650;2022-08-01T04:47:55;24.08;;;4.97;;
37851;SDS011;23691;52.486;4.650;2022-08-01T04:50:22;25.55;;;4.90;;
37851;SDS011;23691;52.486;4.650;2022-08-01T04:52:48;23.63;;;4.97;;
37851;SDS011;23691;52.486;4.650;2022-08-01T04:55:13;25.55;;;4.55;;
37851;SDS011;23691;52.486;4.650;2022-08-01T04:57:39;25.33;;;4.82;;
37851;SDS011;23691;52.486;4.650;2022-08-01T05:00:08;23.27;;;4.97;;
37851;SDS011;23691;52.486;4.650;2022-08-01T05:02:34;20.67;;;4.40;;
37851;SDS011;23691;52.486;4.650;2022-08-01T05:04:59;23.60;;;4.07;;
37851;SDS011;23691;52.486;4.650;2022-08-01T05:07:25;25.40;;;4.55;;
37851;SDS011;23691;52.486;4.650;2022-08-01T05:09:50;30.20;;;4.05;;
37851;SDS011;23691;52.486;4.650;2022-08-01T05:12:16;23.30;;;3.90;;
37851;SDS011;23691;52.486;4.650;2022-08-01T05:14:41;22.70;;;4.63;;
37851;SDS011;23691;52.486;4.650;2022-08-01T05:17:07;27.55;;;4.40;;
37851;SDS011;23691;52.486;4.650;2022-08-01T05:19:33;31.98;;;4.90;;
37851;SDS011;23691;52.486;4.650;2022-08-01T05:22:00;24.38;;;3.47;;
37851;SDS011;23691;52.486;4.650;2022-08-01T05:24:29;22.52;;;3.97;;
37851;SDS011;23691;52.486;4.650;2022-08-01T05:26:55;23.60;;;3.78;;
37851;SDS011;23691;52.486;4.650;2022-08-01T05:29:20;26.77;;;3.88;;
37851;SDS011;23691;52.486;4.650;2022-08-01T05:31:46;22.52;;;3.70;;
37851;SDS011;23691;52.486;4.650;2022-08-01T05:34:11;22.50;;;3.47;;
37851;SDS011;23691;52.486;4.650;2022-08-01T05:36:37;23.17;;;3.45;;
37851;SDS011;23691;52.486;4.650;2022-08-01T05:39:03;18.77;;;3.30;;
37851;SDS011;23691;52.486;4.650;2022-08-01T05:41:29;25.67;;;3.90;;
37851;SDS011;23691;52.486;4.650;2022-08-01T05:43:54;22.42;;;3.28;;
37851;SDS011;23691;52.486;4.650;2022-08-01T05:46:20;24.73;;;3.88;;
37851;SDS011;23691;52.486;4.650;2022-08-01T05:48:45;20.48;;;3.17;;
37851;SDS011;23691;52.486;4.650;2022-08-01T05:51:11;19.05;;;3.22;;
37851;SDS011;23691;52.486;4.650;2022-08-01T05:53:36;20.90;;;3.28;;
37851;SDS011;23691;52.486;4.650;2022-08-01T05:56:01;22.35;;;3.08;;
37851;SDS011;23691;52.486;4.650;2022-08-01T05:58:27;19.10;;;2.92;;
37851;SDS011;23691;52.486;4.650;2022-08-01T06:00:52;21.02;;;2.90;;
37851;SDS011;23691;52.486;4.650;2022-08-01T06:03:18;19.80;;;2.63;;
37851;SDS011;23691;52.486;4.650;2022-08-01T06:05:44;19.38;;;3.15;;
37851;SDS011;23691;52.486;4.650;2022-08-01T06:08:09;20.02;;;2.95;;
37851;SDS011;23691;52.486;4.650;2022-08-01T06:10:34;20.35;;;2.75;;
37851;SDS011;23691;52.486;4.650;2022-08-01T06:13:00;18.00;;;2.63;;
37851;SDS011;23691;52.486;4.650;2022-08-01T06:15:28;16.98;;;2.72;;
37851;SDS011;23691;52.486;4.650;2022-08-01T06:17:54;18.88;;;2.97;;
37851;SDS011;23691;52.486;4.650;2022-08-01T06:20:19;20.02;;;2.75;;
37851;SDS011;23691;52.486;4.650;2022-08-01T06:22:45;17.27;;;2.65;;
37851;SDS011;23691;52.486;4.650;2022-08-01T06:25:10;17.52;;;2.42;;
37851;SDS011;23691;52.486;4.650;2022-08-01T06:27:36;15.88;;;2.85;;
37851;SDS011;23691;52.486;4.650;2022-08-01T06:30:02;15.85;;;2.50;;
37851;SDS011;23691;52.486;4.650;2022-08-01T06:32:28;20.55;;;2.90;;
37851;SDS011;23691;52.486;4.650;2022-08-01T06:34:54;13.63;;;2.47;;
37851;SDS011;23691;52.486;4.650;2022-08-01T06:37:20;18.73;;;2.75;;
37851;SDS011;23691;52.486;4.650;2022-08-01T06:39:46;20.70;;;2.92;;
37851;SDS011;23691;52.486;4.650;2022-08-01T06:42:12;15.48;;;2.53;;
37851;SDS011;23691;52.486;4.650;2022-08-01T06:44:39;20.35;;;2.78;;
37851;SDS011;23691;52.486;4.650;2022-08-01T06:47:05;13.63;;;2.60;;
37851;SDS011;23691;52.486;4.650;2022-08-01T06:49:30;17.80;;;3.00;;
37851;SDS011;23691;52.486;4.650;2022-08-01T06:51:55;17.20;;;2.92;;
37851;SDS011;23691;52.486;4.650;2022-08-01T06:54:21;17.88;;;2.83;;
37851;SDS011;23691;52.486;4.650;2022-08-01T06:56:46;18.95;;;2.70;;
37851;SDS011;23691;52.486;4.650;2022-08-01T06:59:12;18.30;;;2.83;;
37851;SDS011;23691;52.486;4.650;2022-08-01T07:01:37;18.60;;;2.55;;
37851;SDS011;23691;52.486;4.650;2022-08-01T07:04:02;19.20;;;2.65;;
37851;SDS011;23691;52.486;4.650;2022-08-01T07:06:28;16.20;;;2.35;;
37851;SDS011;23691;52.486;4.650;2022-08-01T07:08:53;19.48;;;2.65;;
37851;SDS011;23691;52.486;4.650;2022-08-01T07:11:19;16.73;;;2.95;;
37851;SDS011;23691;52.486;4.650;2022-08-01T07:13:46;15.60;;;2.40;;
37851;SDS011;23691;52.486;4.650;2022-08-01T07:16:12;13.48;;;2.30;;
37851;SDS011;23691;52.486;4.650;2022-08-01T07:18:38;14.35;;;2.38;;
37851;SDS011;23691;52.486;4.650;2022-08-01T07:21:03;17.20;;;2.50;;
37851;SDS011;23691;52.486;4.650;2022-08-01T07:23:30;20.80;;;2.97;;
37851;SDS011;23691;52.486;4.650;2022-08-01T07:25:55;15.48;;;2.55;;
37851;SDS011;23691;52.486;4.650;2022-08-01T07:28:20;15.25;;;2.20;;
37851;SDS011;23691;52.486;4.650;2022-08-01T07:30:46;18.15;;;2.30;;
37851;SDS011;23691;52.486;4.650;2022-08-01T07:33:11;16.92;;;2.08;;
37851;SDS011;23691;52.486;4.650;2022-08-01T07:35:37;15.68;;;2.67;;
37851;SDS011;23691;52.486;4.650;2022-08-01T07:38:04;16.17;;;2.40;;
37851;SDS011;23691;52.486;4.650;2022-08-01T07:40:33;16.88;;;2.60;;
37851;SDS011;23691;52.486;4.650;2022-08-01T07:42:58;21.67;;;2.30;;
37851;SDS011;23691;52.486;4.650;2022-08-01T07:45:24;15.77;;;2.30;;
37851;SDS011;23691;52.486;4.650;2022-08-01T07:47:49;14.05;;;2.10;;
37851;SDS011;23691;52.486;4.650;2022-08-01T07:50:15;15.05;;;2.38;;
37851;SDS011;23691;52.486;4.650;2022-08-01T07:52:41;14.57;;;2.20;;
37851;SDS011;23691;52.486;4.650;2022-08-01T07:55:07;13.43;;;2.00;;
37851;SDS011;23691;52.486;4.650;2022-08-01T07:57:34;16.80;;;2.30;;
37851;SDS011;23691;52.486;4.650;2022-08-01T07:59:59;14.23;;;2.20;;
37851;SDS011;23691;52.486;4.650;2022-08-01T08:02:25;21.25;;;2.20;;
37851;SDS011;23691;52.486;4.650;2022-08-01T08:04:50;15.63;;;2.20;;
37851;SDS011;23691;52.486;4.650;2022-08-01T08:07:16;13.88;;;2.25;;
37851;SDS011;23691;52.486;4.650;2022-08-01T08:09:41;14.55;;;2.25;;
37851;SDS011;23691;52.486;4.650;2022-08-01T08:12:07;13.73;;;2.20;;
37851;SDS011;23691;52.486;4.650;2022-08-01T08:14:32;14.88;;;2.33;;
37851;SDS011;23691;52.486;4.650;2022-08-01T08:16:58;12.73;;;2.10;;
37851;SDS011;23691;52.486;4.650;2022-08-01T08:19:24;13.88;;;2.25;;
37851;SDS011;23691;52.486;4.650;2022-08-01T08:21:49;10.63;;;1.85;;
37851;SDS011;23691;52.486;4.650;2022-08-01T08:24:14;12.63;;;2.13;;
37851;SDS011;23691;52.486;4.650;2022-08-01T08:26:46;9.30;;;1.65;;
37851;SDS011;23691;52.486;4.650;2022-08-01T08:29:16;15.25;;;2.10;;
37851;SDS011;23691;52.486;4.650;2022-08-01T08:31:41;15.02;;;1.92;;
37851;SDS011;23691;52.486;4.650;2022-08-01T08:34:07;12.07;;;1.63;;
37851;SDS011;23691;52.486;4.650;2022-08-01T08:36:32;13.07;;;1.92;;
37851;SDS011;23691;52.486;4.650;2022-08-01T08:38:59;10.18;;;1.60;;
37851;SDS011;23691;52.486;4.650;2022-08-01T08:41:31;11.45;;;1.60;;
37851;SDS011;23691;52.486;4.650;2022-08-01T08:43:57;13.50;;;2.20;;
37851;SDS011;23691;52.486;4.650;2022-08-01T08:46:25;9.30;;;1.55;;
37851;SDS011;23691;52.486;4.650;2022-08-01T08:48:51;10.95;;;1.60;;
37851;SDS011;23691;52.486;4.650;2022-08-01T08:51:17;12.18;;;2.25;;
37851;SDS011;23691;52.486;4.650;2022-08-01T08:53:44;16.50;;;2.20;;
37851;SDS011;23691;52.486;4.650;2022-08-01T08:56:12;10.63;;;1.77;;
37851;SDS011;23691;52.486;4.650;2022-08-01T08:58:39;14.27;;;2.10;;
37851;SDS011;23691;52.486;4.650;2022-08-01T09:01:08;13.35;;;2.30;;
37851;SDS011;23691;52.486;4.650;2022-08-01T09:03:35;12.35;;;1.98;;
37851;SDS011;23691;52.486;4.650;2022-08-01T09:06:01;15.10;;;2.38;;
37851;SDS011;23691;52.486;4.650;2022-08-01T09:08:27;15.80;;;2.03;;
37851;SDS011;23691;52.486;4.650;2022-08-01T09:10:53;12.02;;;2.00;;
37851;SDS011;23691;52.486;4.650;2022-08-01T09:13:18;12.88;;;2.08;;
37851;SDS011;23691;52.486;4.650;2022-08-01T09:15:48;12.82;;;1.90;;
37851;SDS011;23691;52.486;4.650;2022-08-01T09:18:25;11.85;;;1.83;;
37851;SDS011;23691;52.486;4.650;2022-08-01T09:23:52;13.52;;;1.98;;
37851;SDS011;23691;52.486;4.650;2022-08-01T09:26:19;12.68;;;1.98;;
37851;SDS011;23691;52.486;4.650;2022-08-01T09:28:55;10.38;;;1.70;;
37851;SDS011;23691;52.486;4.650;2022-08-01T09:31:21;10.07;;;1.60;;
37851;SDS011;23691;52.486;4.650;2022-08-01T09:33:54;11.07;;;1.70;;
37851;SDS011;23691;52.486;4.650;2022-08-01T09:36:20;10.07;;;1.60;;
37851;SDS011;23691;52.486;4.650;2022-08-01T09:38:47;9.25;;;1.40;;
37851;SDS011;23691;52.486;4.650;2022-08-01T09:41:13;6.85;;;1.20;;
37851;SDS011;23691;52.486;4.650;2022-08-01T09:43:38;10.45;;;1.45;;
37851;SDS011;23691;52.486;4.650;2022-08-01T09:46:10;8.35;;;1.30;;
37851;SDS011;23691;52.486;4.650;2022-08-01T09:48:36;9.27;;;1.33;;
37851;SDS011;23691;52.486;4.650;2022-08-01T09:51:04;7.18;;;1.30;;
37851;SDS011;23691;52.486;4.650;2022-08-01T09:53:41;10.13;;;1.13;;
37851;SDS011;23691;52.486;4.650;2022-08-01T09:56:11;8.20;;;1.30;;
37851;SDS011;23691;52.486;4.650;2022-08-01T09:58:50;12.98;;;1.80;;
37851;SDS011;23691;52.486;4.650;2022-08-01T10:01:15;8.55;;;1.25;;
37851;SDS011;23691;52.486;4.650;2022-08-01T10:03:41;11.23;;;1.48;;
37851;SDS011;23691;52.486;4.650;2022-08-01T10:06:19;8.50;;;1.40;;
37851;SDS011;23691;52.486;4.650;2022-08-01T10:08:46;11.02;;;1.58;;
37851;SDS011;23691;52.486;4.650;2022-08-01T10:11:12;8.25;;;1.17;;
37851;SDS011;23691;52.486;4.650;2022-08-01T10:13:38;11.50;;;1.38;;
37851;SDS011;23691;52.486;4.650;2022-08-01T10:16:03;10.05;;;1.20;;
37851;SDS011;23691;52.486;4.650;2022-08-01T10:18:32;7.05;;;1.45;;
37851;SDS011;23691;52.486;4.650;2022-08-01T10:21:02;8.15;;;1.20;;
37851;SDS011;23691;52.486;4.650;2022-08-01T10:23:36;9.27;;;1.30;;
37851;SDS011;23691;52.486;4.650;2022-08-01T10:26:03;9.98;;;1.67;;
37851;SDS011;23691;52.486;4.650;2022-08-01T10:28:30;10.30;;;1.40;;
37851;SDS011;23691;52.486;4.650;2022-08-01T10:30:59;7.75;;;1.45;;
37851;SDS011;23691;52.486;4.650;2022-08-01T10:33:26;7.93;;;1.23;;
37851;SDS011;23691;52.486;4.650;2022-08-01T10:35:54;6.93;;;1.08;;
37851;SDS011;23691;52.486;4.650;2022-08-01T10:38:19;5.57;;;1.10;;
37851;SDS011;23691;52.486;4.650;2022-08-01T10:40:45;7.57;;;1.17;;
37851;SDS011;23691;52.486;4.650;2022-08-01T10:43:11;8.05;;;1.25;;
37851;SDS011;23691;52.486;4.650;2022-08-01T10:45:41;7.75;;;1.55;;
37851;SDS011;23691;52.486;4.650;2022-08-01T10:58:11;8.05;;;1.27;;
37851;SDS011;23691;52.486;4.650;2022-08-01T11:00:36;9.23;;;1.30;;
37851;SDS011;23691;52.486;4.650;2022-08-01T11:03:02;10.75;;;1.42;;
37851;SDS011;23691;52.486;4.650;2022-08-01T11:05:33;9.85;;;1.48;;
37851;SDS011;23691;52.486;4.650;2022-08-01T11:08:09;11.70;;;1.35;;
37851;SDS011;23691;52.486;4.650;2022-08-01T11:13:07;9.10;;;1.40;;
37851;SDS011;23691;52.486;4.650;2022-08-01T11:15:36;10.13;;;1.40;;
37851;SDS011;23691;52.486;4.650;2022-08-01T11:18:03;10.13;;;1.60;;
37851;SDS011;23691;52.486;4.650;2022-08-01T11:20:56;6.47;;;1.50;;
37851;SDS011;23691;52.486;4.650;2022-08-01T11:23:24;9.25;;;1.50;;
37851;SDS011;23691;52.486;4.650;2022-08-01T11:30:48;9.57;;;1.20;;
37851;SDS011;23691;52.486;4.650;2022-08-01T11:33:16;10.40;;;1.40;;
37851;SDS011;23691;52.486;4.650;2022-08-01T11:38:37;11.70;;;1.55;;
37851;SDS011;23691;52.486;4.650;2022-08-01T11:41:37;9.68;;;1.30;;
37851;SDS011;23691;52.486;4.650;2022-08-01T11:44:04;10.73;;;1.42;;
37851;SDS011;23691;52.486;4.650;2022-08-01T11:51:59;8.45;;;1.45;;
37851;SDS011;23691;52.486;4.650;2022-08-01T11:54:25;7.05;;;1.20;;
37851;SDS011;23691;52.486;4.650;2022-08-01T11:56:54;9.82;;;1.50;;
37851;SDS011;23691;52.486;4.650;2022-08-01T11:59:21;11.20;;;1.60;;
37851;SDS011;23691;52.486;4.650;2022-08-01T12:01:47;7.57;;;1.30;;
37851;SDS011;23691;52.486;4.650;2022-08-01T12:04:12;10.20;;;1.15;;
37851;SDS011;23691;52.486;4.650;2022-08-01T12:06:37;8.90;;;1.40;;
37851;SDS011;23691;52.486;4.650;2022-08-01T12:09:19;10.20;;;1.52;;
37851;SDS011;23691;52.486;4.650;2022-08-01T12:11:46;9.80;;;1.48;;
37851;SDS011;23691;52.486;4.650;2022-08-01T12:14:19;6.57;;;1.20;;
37851;SDS011;23691;52.486;4.650;2022-08-01T12:16:52;10.55;;;1.92;;
37851;SDS011;23691;52.486;4.650;2022-08-01T12:19:22;8.80;;;1.27;;
37851;SDS011;23691;52.486;4.650;2022-08-01T12:22:07;6.78;;;1.23;;
37851;SDS011;23691;52.486;4.650;2022-08-01T12:24:40;11.30;;;1.38;;
37851;SDS011;23691;52.486;4.650;2022-08-01T12:27:08;9.10;;;1.48;;
37851;SDS011;23691;52.486;4.650;2022-08-01T12:29:41;10.82;;;1.55;;
37851;SDS011;23691;52.486;4.650;2022-08-01T12:37:41;11.02;;;1.75;;
37851;SDS011;23691;52.486;4.650;2022-08-01T12:40:21;12.57;;;2.20;;
37851;SDS011;23691;52.486;4.650;2022-08-01T12:42:52;10.10;;;1.60;;
37851;SDS011;23691;52.486;4.650;2022-08-01T12:45:30;10.10;;;1.55;;
37851;SDS011;23691;52.486;4.650;2022-08-01T12:47:58;10.80;;;1.70;;
37851;SDS011;23691;52.486;4.650;2022-08-01T12:50:26;12.07;;;1.80;;
37851;SDS011;23691;52.486;4.650;2022-08-01T12:52:54;9.23;;;1.27;;
37851;SDS011;23691;52.486;4.650;2022-08-01T12:55:21;13.48;;;1.80;;
37851;SDS011;23691;52.486;4.650;2022-08-01T12:57:49;10.52;;;1.65;;
37851;SDS011;23691;52.486;4.650;2022-08-01T13:00:27;9.18;;;1.48;;
37851;SDS011;23691;52.486;4.650;2022-08-01T13:03:03;9.02;;;1.20;;
37851;SDS011;23691;52.486;4.650;2022-08-01T13:08:32;11.35;;;1.83;;
37851;SDS011;23691;52.486;4.650;2022-08-01T13:11:08;6.95;;;1.35;;
37851;SDS011;23691;52.486;4.650;2022-08-01T13:13:48;10.10;;;1.63;;
37851;SDS011;23691;52.486;4.650;2022-08-01T13:16:18;7.03;;;1.13;;
37851;SDS011;23691;52.486;4.650;2022-08-01T13:18:49;8.63;;;1.23;;
37851;SDS011;23691;52.486;4.650;2022-08-01T13:26:52;9.13;;;1.15;;
37851;SDS011;23691;52.486;4.650;2022-08-01T13:31:54;10.73;;;1.40;;
37851;SDS011;23691;52.486;4.650;2022-08-01T13:34:28;8.38;;;1.27;;
37851;SDS011;23691;52.486;4.650;2022-08-01T13:36:55;9.07;;;1.60;;
37851;SDS011;23691;52.486;4.650;2022-08-01T13:39:20;6.82;;;1.30;;
37851;SDS011;23691;52.486;4.650;2022-08-01T13:42:04;5.75;;;1.00;;
37851;SDS011;23691;52.486;4.650;2022-08-01T13:44:29;7.55;;;1.13;;
37851;SDS011;23691;52.486;4.650;2022-08-01T13:46:55;6.82;;;1.20;;
37851;SDS011;23691;52.486;4.650;2022-08-01T13:49:20;8.93;;;0.90;;
37851;SDS011;23691;52.486;4.650;2022-08-01T13:51:46;3.55;;;0.63;;
37851;SDS011;23691;52.486;4.650;2022-08-01T13:54:11;5.13;;;0.60;;
37851;SDS011;23691;52.486;4.650;2022-08-01T13:56:37;6.10;;;0.90;;
37851;SDS011;23691;52.486;4.650;2022-08-01T13:59:03;2.90;;;0.63;;
37851;SDS011;23691;52.486;4.650;2022-08-01T14:01:28;4.72;;;0.90;;
37851;SDS011;23691;52.486;4.650;2022-08-01T14:03:54;3.15;;;0.70;;
37851;SDS011;23691;52.486;4.650;2022-08-01T14:06:19;3.13;;;0.70;;
37851;SDS011;23691;52.486;4.650;2022-08-01T14:08:47;4.10;;;0.70;;
37851;SDS011;23691;52.486;4.650;2022-08-01T14:11:13;5.68;;;0.90;;
37851;SDS011;23691;52.486;4.650;2022-08-01T14:13:38;5.28;;;0.80;;
37851;SDS011;23691;52.486;4.650;2022-08-01T14:16:06;2.88;;;0.80;;
37851;SDS011;23691;52.486;4.650;2022-08-01T14:18:32;5.93;;;1.05;;
37851;SDS011;23691;52.486;4.650;2022-08-01T14:20:58;4.40;;;0.80;;
37851;SDS011;23691;52.486;4.650;2022-08-01T14:23:24;4.63;;;1.00;;
37851;SDS011;23691;52.486;4.650;2022-08-01T14:25:50;9.75;;;1.58;;
37851;SDS011;23691;52.486;4.650;2022-08-01T14:28:15;10.25;;;1.90;;
37851;SDS011;23691;52.486;4.650;2022-08-01T14:30:41;5.65;;;1.02;;
37851;SDS011;23691;52.486;4.650;2022-08-01T14:33:07;5.95;;;0.88;;
37851;SDS011;23691;52.486;4.650;2022-08-01T14:35:33;6.07;;;1.10;;
37851;SDS011;23691;52.486;4.650;2022-08-01T14:37:58;5.15;;;0.77;;
37851;SDS011;23691;52.486;4.650;2022-08-01T14:40:24;7.43;;;0.73;;
37851;SDS011;23691;52.486;4.650;2022-08-01T14:42:49;2.50;;;0.65;;
37851;SDS011;23691;52.486;4.650;2022-08-01T14:45:14;4.07;;;0.80;;
37851;SDS011;23691;52.486;4.650;2022-08-01T14:47:41;3.90;;;0.95;;
37851;SDS011;23691;52.486;4.650;2022-08-01T14:50:11;9.40;;;1.35;;
37851;SDS011;23691;52.486;4.650;2022-08-01T14:52:38;6.80;;;1.10;;
37851;SDS011;23691;52.486;4.650;2022-08-01T14:55:05;8.20;;;1.10;;
37851;SDS011;23691;52.486;4.650;2022-08-01T14:57:34;7.82;;;1.13;;
37851;SDS011;23691;52.486;4.650;2022-08-01T15:00:00;5.72;;;1.33;;
37851;SDS011;23691;52.486;4.650;2022-08-01T15:02:25;7.75;;;1.45;;
37851;SDS011;23691;52.486;4.650;2022-08-01T15:04:51;18.00;;;3.17;;
37851;SDS011;23691;52.486;4.650;2022-08-01T15:07:17;8.98;;;2.55;;
37851;SDS011;23691;52.486;4.650;2022-08-01T15:09:43;8.13;;;1.70;;
37851;SDS011;23691;52.486;4.650;2022-08-01T15:12:10;11.50;;;3.97;;
37851;SDS011;23691;52.486;4.650;2022-08-01T15:14:36;8.05;;;1.90;;
37851;SDS011;23691;52.486;4.650;2022-08-01T15:17:15;13.45;;;2.60;;
37851;SDS011;23691;52.486;4.650;2022-08-01T15:19:40;10.10;;;3.10;;
37851;SDS011;23691;52.486;4.650;2022-08-01T15:22:06;7.40;;;1.85;;
37851;SDS011;23691;52.486;4.650;2022-08-01T15:24:31;7.78;;;1.13;;
37851;SDS011;23691;52.486;4.650;2022-08-01T15:26:57;3.80;;;1.23;;
37851;SDS011;23691;52.486;4.650;2022-08-01T15:29:22;10.70;;;3.25;;
37851;SDS011;23691;52.486;4.650;2022-08-01T15:31:48;11.88;;;3.80;;
37851;SDS011;23691;52.486;4.650;2022-08-01T15:34:13;4.90;;;1.70;;
37851;SDS011;23691;52.486;4.650;2022-08-01T15:36:39;9.23;;;2.53;;
37851;SDS011;23691;52.486;4.650;2022-08-01T15:39:04;15.40;;;5.70;;
37851;SDS011;23691;52.486;4.650;2022-08-01T15:41:30;24.25;;;9.43;;
37851;SDS011;23691;52.486;4.650;2022-08-01T15:43:55;16.50;;;5.50;;
37851;SDS011;23691;52.486;4.650;2022-08-01T15:46:20;10.15;;;2.88;;
37851;SDS011;23691;52.486;4.650;2022-08-01T15:48:46;6.85;;;1.33;;